• Join FlightAware (Why Join?)
  • Login
  • US Flag 
03:05AM EDT


 

Airport Tracker/Info


-or-


 

Live Flight TrackerFlight Track Log ✈ SKW2958 ✈ 2013年 09月 09日 ✈ KPHX - KELP

Flight Track Log - Related Links

Times and Time Zones

All times are in EDT time to prevent confusion due to time zone crossing. See the SKW2958 flight status page for this flight to view local times or setup timezone preferences in your user account.

Time Position Orientation Groundspeed Altitude Reporting Facility
EDT Latitude Longitude Course Direction KTS MPH feet Rate Location/Type
12:51AM 33.4333 -112.0333 248° West 165 190 2,100  Level Phoenix TRACON
12:52AM 33.4167 -112.0833 248° West 219 252 3,600 2,280 Climbing Phoenix TRACON
12:53AM 33.4000 -112.1667 257° West 251 289 6,300 2,460 Climbing Phoenix TRACON
12:54AM 33.3261 -112.2122 207° Southwest 279 321 9,300 2,460 Climbing Albuquerque Center
12:55AM 33.2653 -112.1575 143° Southeast 304 350 12,000 2,580 Climbing Albuquerque Center
12:56AM 33.2481 -112.0544 101° East 318 366 14,600 2,700 Climbing Albuquerque Center
12:57AM 33.2294 -111.9272 100° East 327 376 17,500 2,460 Climbing Albuquerque Center
12:58AM 33.2058 -111.8131 104° East 352 405 19,600 2,220 Climbing Albuquerque Center
12:59AM 33.1817 -111.6950 104° East 365 420 22,000 2,100 Climbing Albuquerque Center
01:00AM 33.1572 -111.5778 104° East 366 421 23,900 1,740 Climbing Albuquerque Center
01:01AM 33.1319 -111.4544 104° East 381 438 25,600 1,680 Climbing Albuquerque Center
01:02AM 33.1061 -111.3297 104° East 388 447 27,400 1,620 Climbing Albuquerque Center
01:03AM 33.0794 -111.2033 104° East 393 452 29,000 780 Climbing Albuquerque Center
01:04AM 33.0503 -111.0700 105° East 415 478 29,000  Level Albuquerque Center
01:05AM 33.0208 -110.9236 103° East 447 514 29,000  Level Albuquerque Center
01:06AM 32.9900 -110.7761 104° East 457 526 29,000  Level Albuquerque Center
01:07AM 32.9572 -110.6158 104° East 453 521 29,000  Level Albuquerque Center
01:08AM 32.9258 -110.4742 105° East 446 513 29,000  Level Albuquerque Center
01:09AM 32.8956 -110.3303 104° East 448 516 29,000  Level Albuquerque Center
01:10AM 32.8644 -110.1858 104° East 451 519 29,000  Level Albuquerque Center
01:11AM 32.8328 -110.0403 104° East 455 524 29,000  Level Albuquerque Center
01:12AM 32.7992 -109.8956 105° East 455 524 29,000  Level Albuquerque Center
01:13AM 32.7669 -109.7497 105° East 458 527 29,000  Level Albuquerque Center
01:14AM 32.7344 -109.6053 105° East 457 526 29,000  Level Albuquerque Center
01:15AM 32.7031 -109.4603 104° East 456 525 29,000  Level Albuquerque Center
01:16AM 32.6697 -109.3144 105° East 459 528 29,000  Level Albuquerque Center
01:17AM 32.6369 -109.1697 105° East 460 529 29,000  Level Albuquerque Center
01:18AM 32.6039 -109.0244 105° East 461 531 29,000  Level Albuquerque Center
01:19AM 32.5708 -108.8778 105° East 464 534 29,000  Level Albuquerque Center
01:20AM 32.5378 -108.7300 105° East 467 537 29,000  Level Albuquerque Center
01:21AM 32.5039 -108.5858 106° East 461 531 29,000  Level Albuquerque Center
01:22AM 32.4708 -108.4425 105° East 457 526 29,000  Level Albuquerque Center
01:23AM 32.4331 -108.2811 105° East 454 522 29,000  Level Albuquerque Center
01:24AM 32.3997 -108.1381 105° East 453 521 29,000  Level Albuquerque Center
01:25AM 32.3653 -107.9922 106° East 460 529 29,000 -900 Level Albuquerque Center
01:26AM 32.3303 -107.8436 106° East 468 539 27,200 -1,920 Descending Albuquerque Center
01:27AM 32.2978 -107.7042 105° East 451 519 25,200 -1,980 Descending Albuquerque Center
01:28AM 32.2650 -107.5703 106° East 433 498 23,300 -1,980 Descending Albuquerque Center
01:29AM 32.2314 -107.4261 105° East 425 489 21,300 -1,920 Descending Albuquerque Center
01:31AM 32.2019 -107.2975 105° East 414 476 19,500 -1,800 Descending Albuquerque Center
01:31AM 32.1889 -107.2367 104° East 400 460 18,600 -1,620 Descending Albuquerque Center
01:32AM 32.1764 -107.1872 107° East 399 459 17,900 -1,860 Descending Albuquerque Center
01:32AM 32.1700 -107.1636 108° East 389 448 17,500 -1,800 Descending Albuquerque Center
01:33AM 32.1481 -107.0697 105° East 384 442 16,100 -1,800 Descending Albuquerque Center
01:33AM 32.1419 -107.0400 104° East 375 432 15,700 -1,920 Descending Albuquerque Center
01:34AM 32.1153 -106.9347 107° East 370 426 14,200 -1,620 Descending Albuquerque Center
01:34AM 32.1103 -106.9200 112° Southeast 354 407 14,100 -1,500 Descending Albuquerque Center
01:35AM 32.0883 -106.8250 105° East 356 410 12,700 -1,620 Descending Albuquerque Center
01:35AM 32.0842 -106.8086 107° East 348 400 12,500 -1,500 Descending Albuquerque Center
01:36AM 32.0628 -106.7203 106° East 339 390 11,200 -1,500 Descending Albuquerque Center
01:36AM 32.0572 -106.7050 113° Southeast 334 384 11,000 -1,140 Descending Albuquerque Center
01:37AM 32.0394 -106.6239 104° East 308 354 10,100 -1,020 Descending Albuquerque Center
01:37AM 32.0339 -106.6106 116° Southeast 290 334 10,000 -1,020 Descending Albuquerque Center
01:38AM 32.0167 -106.5358 105° East 284 327 9,100 -1,020 Descending Albuquerque Center
01:38AM 32.0114 -106.5211 113° Southeast 280 322 9,000 -300 Descending Albuquerque Center
01:39AM 31.9925 -106.4472 107° East 285 328 8,800 -300 Descending Albuquerque Center
01:39AM 31.9853 -106.4350 125° Southeast 276 318 8,700 -840 Descending Albuquerque Center
01:40AM 31.9589 -106.3744 117° Southeast 255 293 8,000 -840 Descending Albuquerque Center
01:40AM 31.9533 -106.3653 126° Southeast 230 265 7,900 -1,200 Descending Albuquerque Center
01:41AM 31.9306 -106.3169 119° Southeast 206 237 6,800 -1,200 Descending Albuquerque Center
01:41AM 31.9261 -106.3094 125° Southeast 180 207 6,700 -1,020 Descending Albuquerque Center
01:42AM 31.8925 -106.2911 155° Southeast 177 204 5,800 -1,020 Descending Albuquerque Center
01:42AM 31.8872 -106.2942 206° Southwest 157 181 5,700 -900 Descending Albuquerque Center
01:43AM 31.8578 -106.3203 217° Southwest 159 183 4,900 -900 Descending Albuquerque Center
01:43AM 31.8547 -106.3272 243° Southwest 149 171 4,800 -600 Descending Albuquerque Center
01:44AM 31.8336 -106.3547 228° Southwest 140 161 4,300 -720 Descending Albuquerque Center
01:44AM 31.8269 -106.3617 222° Southwest 132 152 4,100 -420 Descending Albuquerque Center
01:45AM 31.8106 -106.3853 231° Southwest 135 155 3,900 -240 Descending Albuquerque Center
01:47AM 31.8072 -106.3764 163° South  Level Estimated
01:54AM 31.8072 -106.3764 163° South  Level Estimated
01:55AM 31.8072 -106.3764 163° South  Level Estimated
01:56AM 31.8072 -106.3764 163° South  Level Estimated